createdAt,value
2023-04-03T10:09:27.669Z,18.36
2023-04-03T10:10:27.973Z,18.51
2023-04-03T10:11:28.814Z,18.65
2023-04-03T10:12:29.661Z,18.75
2023-04-03T10:13:32.274Z,18.87
2023-04-03T10:14:31.207Z,18.94
2023-04-03T10:15:32.043Z,19.05
2023-04-03T10:16:32.914Z,19.10
2023-04-03T10:17:33.744Z,19.17
2023-04-03T10:18:34.579Z,19.25
2023-04-03T10:19:35.537Z,19.30
2023-04-03T10:20:36.540Z,19.34
2023-04-03T10:21:37.006Z,19.39
2023-04-03T10:22:37.806Z,19.45
2023-04-03T10:23:38.611Z,19.46
2023-04-03T10:24:39.582Z,19.52
2023-04-03T10:25:39.859Z,19.55
2023-04-03T10:26:40.626Z,19.60
2023-04-03T10:27:41.398Z,19.61
2023-04-03T10:28:42.188Z,19.64
2023-04-03T10:29:42.997Z,19.68
2023-04-03T10:30:43.808Z,19.71
2023-04-03T10:31:44.570Z,19.75
2023-04-03T10:32:45.397Z,19.78
2023-04-03T10:33:46.174Z,19.79
2023-04-03T10:34:58.473Z,19.80
2023-04-03T10:35:48.781Z,19.85
2023-04-03T10:36:48.556Z,19.85
2023-04-03T10:37:49.335Z,19.89
2023-04-03T10:38:50.120Z,19.90
2023-04-03T10:39:51.140Z,19.92
2023-04-03T10:40:51.336Z,19.94
2023-04-03T10:41:55.796Z,19.97
2023-04-03T10:42:53.760Z,19.97
2023-04-03T10:43:53.552Z,20.00
2023-04-03T10:44:54.505Z,20.01
2023-04-03T10:45:54.754Z,20.02
2023-04-03T10:46:55.486Z,20.02
2023-04-03T10:47:56.267Z,20.05
2023-04-03T10:48:56.990Z,20.07
2023-04-03T10:49:59.949Z,20.07
2023-04-03T10:50:58.554Z,20.10
2023-04-03T10:51:59.305Z,20.12
2023-04-03T10:53:00.025Z,20.13
2023-04-03T10:54:00.774Z,20.15
2023-04-03T10:55:01.670Z,20.15
2023-04-03T10:56:02.375Z,20.16
2023-04-03T10:57:11.926Z,20.16
2023-04-03T10:58:04.776Z,20.19
2023-04-03T10:59:04.521Z,20.20
2023-04-03T11:00:05.314Z,20.22
2023-04-03T12:22:10.510Z,21.75
2023-04-03T12:23:10.839Z,21.75
2023-04-03T12:24:11.721Z,21.77
2023-04-03T12:25:12.594Z,21.74
2023-04-03T12:26:13.461Z,21.73
2023-04-03T12:27:14.386Z,21.73
2023-04-03T12:28:15.252Z,21.70
2023-04-03T12:29:16.104Z,21.71
2023-04-03T12:30:16.971Z,21.68
2023-04-03T12:31:17.897Z,21.67
2023-04-03T12:32:18.908Z,21.66
2023-04-03T12:33:19.806Z,21.66
2023-04-03T12:40:31.412Z,18.75
2023-04-03T12:41:31.769Z,17.71
2023-04-03T12:42:32.632Z,16.67
2023-04-03T12:43:33.498Z,15.93
2023-04-03T12:44:34.364Z,15.27
2023-04-03T12:45:35.328Z,14.48
2023-04-03T12:46:35.841Z,14.05
2023-04-03T12:47:36.780Z,13.65
2023-04-03T12:48:37.614Z,13.32
2023-04-03T12:49:38.508Z,13.10
2023-04-03T12:50:39.363Z,12.71
2023-04-03T12:51:40.388Z,12.36
2023-04-03T12:52:40.797Z,12.15
2023-04-03T12:53:41.665Z,11.79
2023-04-03T12:54:42.627Z,11.60
2023-04-03T12:55:43.616Z,11.41
2023-04-03T12:56:44.493Z,11.28
2023-04-03T12:57:45.351Z,11.20
2023-04-03T12:58:46.222Z,11.08
2023-04-03T12:59:47.086Z,10.99
2023-04-03T13:00:47.959Z,10.76
2023-04-03T13:01:49.022Z,10.62
2023-04-03T13:02:49.460Z,10.58
2023-04-03T13:03:50.431Z,10.60
2023-04-03T13:04:51.269Z,10.58
2023-04-03T13:05:52.141Z,10.42
2023-04-03T13:06:53.038Z,10.28
2023-04-03T13:07:53.897Z,10.22
2023-04-03T13:08:54.763Z,10.14
2023-04-03T13:09:55.632Z,10.10
2023-04-03T13:10:56.642Z,9.99
2023-04-03T13:11:57.528Z,9.95
2023-04-03T13:12:58.381Z,10.01
2023-04-03T13:13:59.347Z,9.98
2023-04-03T13:15:00.167Z,9.85
2023-04-03T13:16:01.099Z,9.83
2023-04-03T13:17:02.002Z,9.78
2023-04-03T13:18:02.929Z,9.75
2023-04-03T13:19:03.816Z,9.93
2023-04-03T13:20:04.675Z,10.14
2023-04-03T13:21:05.534Z,10.36
2023-04-03T13:22:06.515Z,10.62
2023-04-03T13:23:07.359Z,10.86
2023-04-03T13:24:15.506Z,11.01
2023-04-03T13:25:10.002Z,10.95
2023-04-03T13:26:09.869Z,11.03
2023-04-03T13:27:10.716Z,11.20
2023-04-03T13:28:13.849Z,11.12
2023-04-03T13:29:20.732Z,11.09
2023-04-03T13:30:14.076Z,11.17
2023-04-03T13:31:13.963Z,11.39
2023-04-03T13:32:14.846Z,11.48
2023-04-03T13:33:15.725Z,11.46
2023-04-03T13:34:16.601Z,11.46
2023-04-03T13:35:18.778Z,11.62
2023-04-03T13:36:18.253Z,11.84
2023-04-03T13:37:19.221Z,12.08
2023-04-03T13:38:20.097Z,12.03
2023-04-03T13:39:20.964Z,12.22
2023-04-03T13:40:21.839Z,12.52
2023-04-03T13:41:22.735Z,12.85
2023-04-03T13:42:23.588Z,13.19
2023-04-03T13:43:24.474Z,13.01
2023-04-03T13:44:25.330Z,12.58
2023-04-03T13:45:26.208Z,12.33
2023-04-03T13:46:27.103Z,12.11
2023-04-03T13:47:28.084Z,12.00
2023-04-03T13:48:28.470Z,12.19
2023-04-03T13:49:29.727Z,12.36
2023-04-03T13:50:30.138Z,12.19
2023-04-03T13:51:31.024Z,12.46
2023-04-03T13:52:32.311Z,12.85
2023-04-03T13:53:32.697Z,12.38
2023-04-03T13:54:33.612Z,12.08
2023-04-03T13:55:34.467Z,12.91
2023-04-03T13:56:35.440Z,13.22
2023-04-03T13:57:36.320Z,13.03
2023-04-03T13:58:37.198Z,13.51
2023-04-03T13:59:38.041Z,14.36
2023-04-03T14:00:38.926Z,14.91
2023-04-03T14:01:39.865Z,14.74
2023-04-03T14:02:40.762Z,14.60
2023-04-03T14:03:41.630Z,15.31
2023-04-03T14:04:42.614Z,15.92
2023-04-03T14:05:43.038Z,16.50
2023-04-03T14:06:43.677Z,16.45
2023-04-03T14:07:44.578Z,16.77
2023-04-03T14:08:45.580Z,17.00
2023-04-03T14:09:46.164Z,17.32
2023-04-03T14:10:46.978Z,17.66
2023-04-03T14:11:47.501Z,17.83
2023-04-03T14:12:48.403Z,17.84
2023-04-03T14:13:49.372Z,17.74
2023-04-03T14:14:50.253Z,17.36
2023-04-03T14:15:51.189Z,16.80
2023-04-03T14:16:52.222Z,17.30
2023-04-03T14:17:52.704Z,18.02
2023-04-03T14:18:53.656Z,18.21
2023-04-03T14:19:54.538Z,18.44
2023-04-03T14:20:55.171Z,17.18
2023-04-03T14:21:55.612Z,16.84
2023-04-03T14:22:56.576Z,17.63
2023-04-03T14:23:57.050Z,16.51
2023-04-03T14:24:57.906Z,15.67
2023-04-03T14:25:58.826Z,14.80
2023-04-03T14:26:59.732Z,14.06
2023-04-03T14:28:00.615Z,13.63
2023-04-03T14:29:01.510Z,13.46
2023-04-03T14:30:02.371Z,14.13
2023-04-03T14:31:03.371Z,13.91
2023-04-03T14:32:11.859Z,14.85
2023-04-03T14:33:05.534Z,14.72
2023-04-03T14:34:05.477Z,16.10
2023-04-03T14:35:06.447Z,17.18
2023-04-03T14:36:07.407Z,17.84
2023-04-03T14:37:08.296Z,18.41
2023-04-03T14:38:09.223Z,18.99
2023-04-03T14:39:10.103Z,19.39
2023-04-03T14:40:11.001Z,19.82
2023-04-03T14:41:16.621Z,19.90
2023-04-03T14:42:13.430Z,20.16
2023-04-03T14:43:13.294Z,20.53
2023-04-03T14:44:13.799Z,20.44
2023-04-03T14:45:14.709Z,20.35
2023-04-03T14:46:15.681Z,18.87
2023-04-03T14:47:30.009Z,17.51
2023-04-03T14:48:18.362Z,16.54
2023-04-03T14:49:18.212Z,15.96
2023-04-03T14:50:19.134Z,17.21
2023-04-03T14:51:20.172Z,18.10
2023-04-03T14:52:20.603Z,18.74
2023-04-03T14:53:23.632Z,18.84
2023-04-03T14:54:23.200Z,19.57
2023-04-03T14:55:23.095Z,19.98
2023-04-03T14:56:24.092Z,20.34
2023-04-03T14:57:24.580Z,20.68
2023-04-03T14:58:25.407Z,21.06
2023-04-03T14:59:26.296Z,20.91
2023-04-03T15:00:27.197Z,20.82
2023-04-03T15:01:28.209Z,21.09
2023-04-03T15:02:29.203Z,21.33
2023-04-03T15:03:29.810Z,21.59
2023-04-03T15:04:30.568Z,21.67
2023-04-03T15:05:30.975Z,20.05
2023-04-03T15:06:32.228Z,19.85
2023-04-03T15:07:32.448Z,18.56
2023-04-03T15:08:33.342Z,19.47
2023-04-03T15:09:34.219Z,19.35
2023-04-03T15:10:35.116Z,18.32
2023-04-03T15:11:36.153Z,17.94
2023-04-03T15:12:36.608Z,19.06
2023-04-03T15:13:37.463Z,19.47
2023-04-03T15:15:39.642Z,20.25
2023-04-03T15:16:40.297Z,20.31
2023-04-03T15:17:40.742Z,20.60
2023-04-03T15:18:41.709Z,20.87
2023-04-03T15:19:42.670Z,21.33
2023-04-03T15:20:43.490Z,21.51
2023-04-03T15:21:44.532Z,21.58
2023-04-03T15:22:45.058Z,21.90
2023-04-03T15:23:45.922Z,21.98
2023-04-03T15:24:46.817Z,22.21
2023-04-03T15:25:47.770Z,20.54
2023-04-03T15:26:48.699Z,19.07
2023-04-03T15:27:49.611Z,18.02
2023-04-03T15:28:50.488Z,17.58
2023-04-03T15:29:51.351Z,19.31
2023-04-03T15:30:52.232Z,19.70
2023-04-03T15:31:53.202Z,18.23
2023-04-03T15:32:54.168Z,17.68
2023-04-03T15:33:54.569Z,16.75
2023-04-03T15:34:56.686Z,16.14
2023-04-03T15:36:06.630Z,15.84
2023-04-03T15:36:58.122Z,16.63
2023-04-03T15:37:57.971Z,16.81
2023-04-03T15:38:58.937Z,16.30
2023-04-03T15:39:59.831Z,15.44
2023-04-03T15:41:00.820Z,15.95
2023-04-03T15:42:01.715Z,16.32
2023-04-03T15:43:02.611Z,17.09
2023-04-03T15:44:03.464Z,18.04
2023-04-03T15:45:04.340Z,18.71
2023-04-03T15:46:05.247Z,19.30
2023-04-03T15:47:06.089Z,19.64
2023-04-03T15:48:07.048Z,19.53
2023-04-03T15:49:07.891Z,19.12
2023-04-03T15:50:08.926Z,18.69
2023-04-03T15:51:09.369Z,18.79
2023-04-03T15:52:10.266Z,19.23
2023-04-03T15:53:11.135Z,19.79
2023-04-03T15:54:12.001Z,20.04
2023-04-03T15:55:12.892Z,20.50
2023-04-03T15:56:13.734Z,20.53
2023-04-03T15:57:14.636Z,20.35
2023-04-03T15:58:15.529Z,20.68
2023-04-03T15:59:16.373Z,20.97
2023-04-03T16:00:17.268Z,20.88
2023-04-03T16:01:18.124Z,21.56
2023-04-03T16:02:19.065Z,21.98
2023-04-03T16:03:20.068Z,22.42
2023-04-03T16:04:20.706Z,22.81
2023-04-03T16:05:21.041Z,22.75
2023-04-03T16:06:21.922Z,21.77
2023-04-03T16:07:22.904Z,20.88
2023-04-03T16:08:23.774Z,21.31
2023-04-03T16:09:24.639Z,21.49
2023-04-03T16:10:25.504Z,21.67
2023-04-03T16:11:26.377Z,21.33
2023-04-03T16:12:27.393Z,19.46
2023-04-03T16:13:27.796Z,18.16
2023-04-03T16:14:28.655Z,18.56
2023-04-03T16:15:29.546Z,18.44
2023-04-03T16:16:30.390Z,17.18
2023-04-03T16:17:31.410Z,16.72
2023-04-03T16:18:32.278Z,16.85
2023-04-03T16:19:33.125Z,16.50
2023-04-03T16:20:33.992Z,15.56
2023-04-03T16:21:34.873Z,14.91
2023-04-03T16:22:35.778Z,14.35
2023-04-03T16:23:36.658Z,14.19
2023-04-03T16:24:37.513Z,13.88
2023-04-03T16:25:38.602Z,13.65
2023-04-03T16:26:39.060Z,13.43
2023-04-03T16:27:39.923Z,13.27
2023-04-03T16:28:40.847Z,13.07
2023-04-03T16:29:41.684Z,12.77
2023-04-03T16:30:42.552Z,12.56
2023-04-03T16:31:43.449Z,12.31
2023-04-03T16:32:44.377Z,12.25
2023-04-03T16:33:45.193Z,12.05
2023-04-03T16:34:46.075Z,11.94
2023-04-03T16:35:46.943Z,11.87
2023-04-03T16:36:47.841Z,11.81
2023-04-03T16:37:48.755Z,11.78
2023-04-03T16:38:49.627Z,11.60
2023-04-03T16:39:50.508Z,11.48
2023-04-03T16:40:51.374Z,11.44
2023-04-03T16:41:52.254Z,11.31
2023-04-03T16:42:53.119Z,11.20
2023-04-03T16:43:54.011Z,11.20
2023-04-03T16:44:54.883Z,11.21
2023-04-03T16:45:55.738Z,11.24
2023-04-03T16:46:56.644Z,11.23
2023-04-03T16:47:57.526Z,11.21
2023-04-03T16:48:58.373Z,11.21
2023-04-03T16:49:59.455Z,11.09
2023-04-03T16:50:59.837Z,10.90
2023-04-03T16:52:00.694Z,10.90
2023-04-03T16:53:01.558Z,10.90
2023-04-03T16:54:02.428Z,10.80
2023-04-03T16:55:03.364Z,10.78
2023-04-03T16:56:04.217Z,10.72
2023-04-03T16:57:05.080Z,10.75
2023-04-03T16:58:05.951Z,10.83
2023-04-03T16:59:06.903Z,10.83
2023-04-03T17:00:07.916Z,10.78
2023-04-03T17:01:08.292Z,10.72
2023-04-03T17:02:09.199Z,10.68
2023-04-03T17:03:10.075Z,10.66
2023-04-03T17:04:11.149Z,10.68
2023-04-03T17:05:11.666Z,10.66
2023-04-03T17:06:12.036Z,10.63
2023-04-03T17:07:12.903Z,10.62
2023-04-03T17:08:13.768Z,10.58
2023-04-03T17:09:14.634Z,10.58
2023-04-03T17:10:15.541Z,10.54
2023-04-03T17:11:16.410Z,10.44
2023-04-03T17:12:17.276Z,10.43
2023-04-03T17:13:18.142Z,10.38
2023-04-03T17:14:19.039Z,10.38
2023-04-03T17:15:20.090Z,10.36
2023-04-03T17:16:20.490Z,10.34
2023-04-03T17:17:21.332Z,10.32
2023-04-03T17:18:22.190Z,10.28
2023-04-03T17:19:23.061Z,10.22
2023-04-03T17:20:23.978Z,10.17
2023-04-03T17:21:24.862Z,10.16
2023-04-03T17:22:25.731Z,10.10
2023-04-03T17:23:26.603Z,10.06
2023-04-03T17:24:27.472Z,10.01
2023-04-03T17:25:28.483Z,9.98
2023-04-03T17:26:28.864Z,9.98
2023-04-03T17:27:29.722Z,9.92
2023-04-03T17:28:30.597Z,9.91
2023-04-03T17:29:31.487Z,9.88
2023-04-03T17:30:32.490Z,9.86
2023-04-03T17:31:32.884Z,9.86
2023-04-03T17:32:33.772Z,9.85
2023-04-03T17:33:34.619Z,9.77
2023-04-03T17:34:35.476Z,9.75
2023-04-03T17:35:36.392Z,9.71
2023-04-03T17:36:37.286Z,9.70
2023-04-03T17:37:38.121Z,9.59
2023-04-03T17:38:39.000Z,9.58
2023-04-03T17:39:39.859Z,9.50
2023-04-03T17:40:41.144Z,9.50
2023-04-03T17:41:41.502Z,9.50
2023-04-03T17:42:42.365Z,9.45
2023-04-03T17:43:43.243Z,9.45
2023-04-03T17:44:44.215Z,9.41
2023-04-03T17:45:45.176Z,9.40
2023-04-03T17:46:45.654Z,9.34
2023-04-03T17:47:46.606Z,9.32
2023-04-03T17:48:47.505Z,9.34
2023-04-03T17:49:48.369Z,9.31
2023-04-03T17:50:49.297Z,9.26
2023-04-03T17:51:50.171Z,9.22
2023-04-03T17:52:51.036Z,9.20
2023-04-03T17:53:51.912Z,9.19
2023-04-03T17:54:52.802Z,9.20
2023-04-03T17:55:53.794Z,9.22
2023-04-03T17:56:54.166Z,9.20
2023-04-03T17:57:55.025Z,9.16
2023-04-03T17:58:55.946Z,9.19
2023-04-03T17:59:56.818Z,9.17
2023-04-03T18:00:57.753Z,9.15
2023-04-03T18:01:58.703Z,9.03
2023-04-03T18:02:59.581Z,8.96
2023-04-03T18:04:00.454Z,8.94
2023-04-03T18:05:01.314Z,8.96
2023-04-03T18:06:02.259Z,8.93
2023-04-03T18:07:03.109Z,8.97
2023-04-03T18:08:03.978Z,8.94
2023-04-03T18:09:04.839Z,8.89
2023-04-03T18:10:05.723Z,8.88
2023-04-03T18:11:06.623Z,8.88
2023-04-03T18:12:07.489Z,8.80
2023-04-03T18:13:08.366Z,8.76
2023-04-03T18:14:09.225Z,8.73
2023-04-03T18:15:10.129Z,8.71
2023-04-03T18:16:11.045Z,8.73
2023-04-03T18:17:11.896Z,8.68
2023-04-03T18:18:12.804Z,8.64
2023-04-03T18:20:14.459Z,8.63
2023-04-03T18:21:15.394Z,8.58
2023-04-03T18:22:16.231Z,8.52
2023-04-03T18:23:17.099Z,8.50
2023-04-03T18:24:17.967Z,8.54
2023-04-03T18:25:18.842Z,8.57
2023-04-03T18:26:20.834Z,8.50
2023-04-03T18:27:20.336Z,8.40
2023-04-03T18:28:21.226Z,8.34
2023-04-03T18:29:22.107Z,8.25
2023-04-03T18:30:22.963Z,8.31
2023-04-03T18:31:23.854Z,8.24
2023-04-03T18:32:24.733Z,8.17
2023-04-03T18:33:25.602Z,8.06
2023-04-03T18:34:26.478Z,8.04
2023-04-03T18:35:27.342Z,7.96
2023-04-03T18:36:28.354Z,8.04
2023-04-03T18:37:28.719Z,8.03
2023-04-03T18:38:29.586Z,7.95
2023-04-03T18:39:30.455Z,7.95
2023-04-03T18:40:31.334Z,7.95
2023-04-03T18:41:32.233Z,7.99
2023-04-03T18:42:33.102Z,7.99
2023-04-03T18:43:33.965Z,8.00
2023-04-03T18:44:34.860Z,7.99
2023-04-03T18:45:35.742Z,7.86
2023-04-03T18:47:37.589Z,7.73
2023-04-03T18:48:38.421Z,7.70
2023-04-03T18:49:39.280Z,7.63
2023-04-03T18:50:40.147Z,7.54
2023-04-03T18:51:41.149Z,7.54
2023-04-03T18:52:41.508Z,7.52
2023-04-03T18:53:42.406Z,7.58
2023-04-03T18:54:43.250Z,7.60
2023-04-03T18:55:44.114Z,7.58
2023-04-03T18:56:45.139Z,7.55
2023-04-03T18:57:45.474Z,7.58
2023-04-03T18:58:46.382Z,7.58
2023-04-03T18:59:47.209Z,7.41
2023-04-03T19:00:48.110Z,7.36
2023-04-03T19:01:49.003Z,7.45
2023-04-03T19:02:49.972Z,7.47
2023-04-03T19:03:50.854Z,7.51
2023-04-03T19:04:51.741Z,7.45
2023-04-03T19:05:52.593Z,7.45
2023-04-03T19:06:53.587Z,7.39
2023-04-03T19:07:53.954Z,7.21
2023-04-03T19:08:54.829Z,7.07
2023-04-03T19:09:55.686Z,7.07
2023-04-03T19:10:56.553Z,7.16
2023-04-03T19:11:57.486Z,7.18
2023-04-03T19:12:58.350Z,7.24
2023-04-03T19:14:14.510Z,7.26
2023-04-03T19:15:00.981Z,7.27
2023-04-03T19:16:00.868Z,7.29
2023-04-03T19:17:01.885Z,7.27
2023-04-03T19:18:02.362Z,7.11
2023-04-03T19:19:02.808Z,7.00
2023-04-03T19:20:03.702Z,7.04
2023-04-03T19:21:04.567Z,6.91
2023-04-03T19:22:05.564Z,6.93
2023-04-03T19:23:05.938Z,7.01
2023-04-03T19:24:06.805Z,7.07
2023-04-03T19:25:07.688Z,6.97
2023-04-03T19:26:08.558Z,6.82
2023-04-03T19:27:09.437Z,6.65
2023-04-03T19:28:10.306Z,6.55
2023-04-03T19:29:11.199Z,6.54
2023-04-03T19:30:12.092Z,6.61
2023-04-03T19:31:12.978Z,6.68
2023-04-03T19:32:13.894Z,6.73
2023-04-03T19:33:14.733Z,6.81
2023-04-03T19:34:15.586Z,6.81
2023-04-03T19:35:16.472Z,6.69
2023-04-03T19:36:17.345Z,6.68
2023-04-03T19:37:18.221Z,6.63
2023-04-03T19:38:19.095Z,6.64
2023-04-03T19:39:19.986Z,6.68
2023-04-03T19:40:20.898Z,6.64
2023-04-03T19:41:21.770Z,6.69
2023-04-03T19:42:22.650Z,6.72
2023-04-03T19:43:23.514Z,6.71
2023-04-03T19:44:24.415Z,6.55
2023-04-03T19:45:25.358Z,6.43
2023-04-03T19:46:26.308Z,6.38
2023-04-03T19:47:27.226Z,6.40
2023-04-03T19:48:28.074Z,6.46
2023-04-03T19:49:28.952Z,6.33
2023-04-03T19:50:29.999Z,6.21
2023-04-03T19:51:30.390Z,6.16
2023-04-03T19:52:31.244Z,6.10
2023-04-03T19:53:32.117Z,6.01
2023-04-03T19:54:33.001Z,6.03
2023-04-03T19:55:33.888Z,6.03
2023-04-03T19:56:34.782Z,6.11
2023-04-03T19:57:35.632Z,6.14
2023-04-03T19:58:36.523Z,6.08
2023-04-03T19:59:37.384Z,5.98
2023-04-03T20:00:38.251Z,5.88
2023-04-03T20:01:39.194Z,5.95
2023-04-03T20:02:40.038Z,5.88
2023-04-03T20:03:40.938Z,5.85
2023-04-03T20:04:41.848Z,5.77
2023-04-03T20:05:42.749Z,5.80
2023-04-03T20:06:43.573Z,5.84
2023-04-03T20:07:44.466Z,5.69
2023-04-03T20:08:45.373Z,5.65
2023-04-03T20:09:46.251Z,5.56
2023-04-03T20:10:47.132Z,5.48
2023-04-03T20:11:47.980Z,5.48
2023-04-03T20:12:48.503Z,5.52
2023-04-03T20:13:49.409Z,5.60
2023-04-03T20:14:50.289Z,5.63
2023-04-03T20:15:51.187Z,5.67
2023-04-03T20:16:51.800Z,5.62
2023-04-03T20:17:52.656Z,5.55
2023-04-03T20:18:53.588Z,5.58
2023-04-03T20:19:54.466Z,5.58
2023-04-03T20:20:55.341Z,5.56
2023-04-03T20:21:56.212Z,5.58
2023-04-03T20:22:57.081Z,5.48
2023-04-03T20:23:58.019Z,5.42
2023-04-03T20:25:05.624Z,5.41
2023-04-03T20:26:10.643Z,5.41
2023-04-03T20:27:01.471Z,5.47
2023-04-03T20:28:01.291Z,5.56
2023-04-03T20:29:02.420Z,5.58
2023-04-03T20:30:03.946Z,5.49
2023-04-03T20:31:03.728Z,5.49
2023-04-03T20:32:04.648Z,5.48
2023-04-03T20:33:05.600Z,5.47
2023-04-03T20:34:06.635Z,5.52
2023-04-03T20:35:07.004Z,5.49
2023-04-03T20:36:07.871Z,5.52
2023-04-03T20:37:08.795Z,5.47
2023-04-03T20:38:09.645Z,5.48
2023-04-03T20:39:10.734Z,5.51
2023-04-03T20:40:11.091Z,5.51
2023-04-03T20:41:11.951Z,5.56
2023-04-03T20:42:12.886Z,5.55
2023-04-03T20:43:13.733Z,5.55
2023-04-03T20:44:14.719Z,5.51
2023-04-03T20:45:15.089Z,5.55
2023-04-03T20:46:15.983Z,5.55
2023-04-03T20:47:16.904Z,5.56
2023-04-03T20:48:17.762Z,5.55
2023-04-03T20:49:18.662Z,5.59
2023-04-03T20:50:19.550Z,5.58
2023-04-03T20:51:20.429Z,5.55
2023-04-03T20:52:21.283Z,5.48
2023-04-03T20:53:22.156Z,5.49
2023-04-03T20:54:23.138Z,5.52
2023-04-03T20:55:24.016Z,5.48
2023-04-03T20:56:24.876Z,5.45
2023-04-03T20:57:25.806Z,5.40
2023-04-03T20:58:26.666Z,5.41
2023-04-03T20:59:27.592Z,5.47
2023-04-03T21:00:28.438Z,5.41
2023-04-03T21:01:29.335Z,5.48
2023-04-03T21:02:30.273Z,5.48
2023-04-03T21:03:31.192Z,5.47
2023-04-03T21:04:32.015Z,5.48
2023-04-03T21:05:32.880Z,5.49
2023-04-03T21:06:33.746Z,5.49
2023-04-03T21:07:34.632Z,5.45
2023-04-03T21:08:35.499Z,5.41
2023-04-03T21:09:36.364Z,5.35
2023-04-03T21:10:37.235Z,5.30
2023-04-03T21:11:38.100Z,5.41
2023-04-03T21:12:38.994Z,5.40
2023-04-03T21:13:39.871Z,5.44
2023-04-03T21:14:40.816Z,5.42
2023-04-03T21:15:41.779Z,5.40
2023-04-03T21:16:42.627Z,5.33
2023-04-03T21:17:43.613Z,5.33
2023-04-03T21:18:44.447Z,5.35
2023-04-03T21:19:45.319Z,5.35
2023-04-03T21:20:46.863Z,5.38
2023-04-03T21:21:47.037Z,5.35
2023-04-03T21:22:48.015Z,5.30
2023-04-03T21:23:48.888Z,5.38
2023-04-03T21:24:49.772Z,5.37
2023-04-03T21:25:50.639Z,5.33
2023-04-03T21:26:51.505Z,5.29
2023-04-03T21:27:52.421Z,5.32
2023-04-03T21:28:53.301Z,5.33
2023-04-03T21:29:54.175Z,5.33
2023-04-03T21:30:55.078Z,5.42
2023-04-03T21:31:55.922Z,5.44
2023-04-03T21:32:57.011Z,5.42
2023-04-03T21:33:57.344Z,5.37
2023-04-03T21:34:58.198Z,5.24
2023-04-03T21:35:59.065Z,5.20
2023-04-03T21:36:59.977Z,5.12
2023-04-03T21:38:00.874Z,5.02
2023-04-03T21:39:01.748Z,5.01
2023-04-03T21:40:02.613Z,4.91
2023-04-03T21:41:03.481Z,5.01
2023-04-03T21:42:04.343Z,5.11
2023-04-03T21:43:05.265Z,5.12
2023-04-03T21:44:06.133Z,5.09
2023-04-03T21:45:07.006Z,5.09
2023-04-03T21:46:07.921Z,5.12
2023-04-03T21:47:08.757Z,5.05
2023-04-03T21:48:09.708Z,4.99
2023-04-03T21:49:10.580Z,4.91
2023-04-03T21:50:11.449Z,4.90
2023-04-03T21:51:12.336Z,4.91
2023-04-03T21:52:13.199Z,4.87
2023-04-03T21:53:14.065Z,4.86
2023-04-03T21:54:14.932Z,4.83
2023-04-03T21:55:15.801Z,4.87
2023-04-03T21:56:16.684Z,4.90
2023-04-03T21:57:17.556Z,4.96
2023-04-03T21:58:18.430Z,5.02
2023-04-03T21:59:19.403Z,5.04
2023-04-03T22:00:20.030Z,5.01
2023-04-03T22:01:20.454Z,5.01
2023-04-03T22:02:21.322Z,4.96
2023-04-03T22:03:22.261Z,4.99
2023-04-03T22:04:23.123Z,5.08
2023-04-03T22:05:24.028Z,5.08
2023-04-03T22:06:24.967Z,5.12
2023-04-03T22:07:25.835Z,5.20
2023-04-03T22:08:26.719Z,5.22
2023-04-03T22:09:27.571Z,5.22
2023-04-03T22:10:28.440Z,5.20
2023-04-03T22:11:29.439Z,5.22
2023-04-03T22:12:29.811Z,5.22
2023-04-03T22:13:30.671Z,5.26
2023-04-03T22:14:31.541Z,5.30
2023-04-03T22:15:32.405Z,5.35
2023-04-03T22:16:33.410Z,5.37
2023-04-03T22:17:33.781Z,5.33
2023-04-03T22:18:34.665Z,5.33
2023-04-03T22:19:35.531Z,5.33
2023-04-03T22:20:36.395Z,5.37
2023-04-03T22:21:37.312Z,5.35
2023-04-03T22:22:38.180Z,5.35
2023-04-03T22:23:39.056Z,5.35
2023-04-03T22:24:39.926Z,5.29
2023-04-03T22:25:40.800Z,5.30
2023-04-03T22:26:41.721Z,5.32
2023-04-03T22:27:42.598Z,5.35
2023-04-03T22:28:43.467Z,5.35
2023-04-03T22:29:44.333Z,5.35
2023-04-03T22:30:45.200Z,5.30
2023-04-03T22:31:46.186Z,5.29
2023-04-03T22:32:47.046Z,5.26
2023-04-03T22:33:47.794Z,5.26
2023-04-03T22:34:48.656Z,5.23
2023-04-03T22:35:49.523Z,5.22
2023-04-03T22:36:50.391Z,5.15
2023-04-03T22:37:51.270Z,5.11
2023-04-03T22:38:52.139Z,5.11
2023-04-03T22:39:53.027Z,5.08
2023-04-03T22:40:53.893Z,5.06
2023-04-03T22:41:54.764Z,5.05
2023-04-03T22:42:55.631Z,5.05
2023-04-03T22:43:56.498Z,5.04
2023-04-03T22:44:57.382Z,5.06
2023-04-03T22:45:58.280Z,5.11
2023-04-03T22:46:59.216Z,5.12
2023-04-03T22:48:00.117Z,5.08
2023-04-03T22:49:01.012Z,5.08
2023-04-03T22:50:01.964Z,5.05
2023-04-03T22:51:02.821Z,5.04
2023-04-03T22:52:03.684Z,5.05
2023-04-03T22:53:04.547Z,5.04
2023-04-03T22:54:05.428Z,5.04
2023-04-03T22:55:18.619Z,5.05
2023-04-03T22:56:08.204Z,5.08
2023-04-03T22:57:08.053Z,5.05
2023-04-03T22:58:08.920Z,5.06
2023-04-03T22:59:09.848Z,5.06
2023-04-03T23:00:10.759Z,4.97
2023-04-03T23:01:11.768Z,4.94
2023-04-03T23:02:12.165Z,4.93
2023-04-03T23:03:13.039Z,4.91
2023-04-03T23:04:13.988Z,4.91
2023-04-03T23:05:14.890Z,4.90
2023-04-03T23:06:15.763Z,4.88
2023-04-03T23:07:16.622Z,4.91
2023-04-03T23:08:17.489Z,4.90
2023-04-03T23:09:18.361Z,4.90
2023-04-03T23:10:19.484Z,4.88
2023-04-03T23:11:19.843Z,4.91
2023-04-03T23:12:20.711Z,4.91
2023-04-03T23:13:21.579Z,4.93
2023-04-03T23:14:22.445Z,4.90
2023-04-03T23:15:23.443Z,4.90
2023-04-03T23:16:24.341Z,4.90
2023-04-03T23:17:25.167Z,4.88
2023-04-03T23:18:26.048Z,4.88
2023-04-03T23:19:26.930Z,4.88
2023-04-03T23:20:27.846Z,4.88
2023-04-03T23:21:28.742Z,4.90
2023-04-03T23:22:29.578Z,4.94
2023-04-03T23:23:30.445Z,4.93
2023-04-03T23:24:31.316Z,4.93
2023-04-03T23:25:32.343Z,4.90
2023-04-03T23:26:32.710Z,4.93
2023-04-03T23:27:33.576Z,4.94
2023-04-03T23:28:34.442Z,4.97
2023-04-03T23:29:35.313Z,4.96
2023-04-03T23:30:36.233Z,5.01
2023-04-03T23:31:37.117Z,5.02
2023-04-03T23:32:37.976Z,5.02
2023-04-03T23:33:38.854Z,4.94
2023-04-03T23:34:39.743Z,4.91
2023-04-03T23:35:40.623Z,4.93
2023-04-03T23:36:41.478Z,4.91
2023-04-03T23:37:42.345Z,4.86
2023-04-03T23:38:43.217Z,4.86
2023-04-03T23:39:44.082Z,4.86
2023-04-03T23:40:45.093Z,4.83
2023-04-03T23:41:45.458Z,4.79
2023-04-03T23:42:46.390Z,4.74
2023-04-03T23:43:47.200Z,4.75
2023-04-03T23:44:48.074Z,4.74
2023-04-03T23:45:49.043Z,4.71
2023-04-03T23:46:49.917Z,4.74
2023-04-03T23:47:50.813Z,4.71
2023-04-03T23:48:51.649Z,4.72
2023-04-03T23:49:52.553Z,4.71
2023-04-03T23:50:53.457Z,4.68
2023-04-03T23:51:54.319Z,4.68
2023-04-03T23:52:55.188Z,4.68
2023-04-03T23:53:56.052Z,4.67
2023-04-03T23:54:56.924Z,4.65
2023-04-03T23:55:57.862Z,4.62
2023-04-03T23:56:58.724Z,4.62
2023-04-03T23:57:59.592Z,4.56
2023-04-03T23:59:00.498Z,4.54
